Aérodrome :
LOGIN :

S'inscrire | Disclaimer

   EN    FR    IT 

 










Légende :    VFR   VFR Marginal   IFR   IFR Intensif   IFR Très Intensif
Visi : 
Plafond : 
>= 8 km
>= 3000ft
5 à 8 km
1000 à 3000 ft
1500m à 5 km
500 à 1000 ft
800 à 1500m
200 à 500 ft
< 800m
< 200 ft
Symboles :   Orages  Brouillard  Fortes neiges  Fortes précipitations  Vent > 20 kt
SIGMETs :   Divers  Orages  Givrage  Turbulence  Onde Orograph.  Cendres Volcan.







- Altitude de l'aérodrome : 219 ft
- Code IATA : DNR
- Voir les cartes d'approche


LFRD - Dinard

DERNIER METAR :
  • 241900Z AUTO 31014KT 9999 BKN009 14/12 Q1020 NOSIG

METARs EXPIRÉS :
  • 241830Z AUTO 31011KT 9999 BKN009 14/12 Q1020 NOSIG
  • 241800Z AUTO 31013KT 9999 OVC008 14/12 Q1020 NOSIG
  • 241730Z AUTO 31012KT 9999 OVC007 14/12 Q1020 NOSIG
  • 241700Z AUTO 31013KT 9999 OVC008 14/12 Q1020 NOSIG
  • 241630Z AUTO 33014KT 9999 BKN009 OVC018 14/12 Q1020 TEMPO BKN012

TAF TAF LFRD
Valide du 24 à 18h jusqu'au 25 à 18h UTC


241700Z 2418/2518 31010KT 9999 SCT020
TEMPO 2418/2424 BKN008
BECMG 2500/2502 BKN008
PROB30
TEMPO 2502/2508 BKN004
BECMG 2508/2510 SCT020
PROB40
TEMPO 2514/2518 BKN008
ATIS : +33 2 99 16 81 50
Pas de NOTAMs connus pour ce terrain.



MET'MAP, la Météo Aéronautique d'un coup d'oeil ! - Copyright ORBIFLY Décembre 2007 - Disclaimer

ORBIFLY MET'MAP TEAM :

Programmation & Développement : Alexandra Zaïnal
Conception & Développement : Baudouin d'Aumeries
Co-Programmation & Développement : Marc-Olivier Méhu
Soutien technique & logistique : Manuel Goepfert

Contact : metmap@orbifly.com




SOURCES & CREDITS :

   NOAA